Addison, Ohio
Current Conditions -  °F | °C
As of 11:35 PM on Tuesday 21 Oct 2014 (Local Time) from K3I2 Reporting Station
Broken Clouds Broken Clouds  
Wind Chill: 48°   Ceiling: 4900
Heat Index: 48°   Visibility: 10mi
Dew Point: 43°   Wind: 3mph
Humidity: 82%   Direction: 300°WNW
Pressure: 30.13"   Gusts: NA
Location:  38.7997°N, 82.2553°W
Report Text: K3I2 220335Z AUTO 30003KT 10SM SCT038 SCT045 BKN049 09/06 A3013 RMK AO2
Loading
Personal Weather Stations






























Interactive Weather Map New forecast layout! Learn more

10-Day Weather Forecast

Advertisements
Track Severe Weather on mobile